Time;durP1;ratioP1;P1;durP2;ratioP2;P2;SDS_P1;SDS_P2;PMS_P1;PMS_P2;Temp;Humidity;BMP_temperature;BMP_pressure;BME280_temperature;BME280_humidity;BME280_pressure;Samples;Min_cycle;Max_cycle;Signal;HPM_P1;HPM_P2
2023/01/01 00:01:54;;;;;;;;;;;;;;;;;;5116063;28;978;-69
2023/01/01 00:04:19;;;;;;;;;;;;;;;;;;5097840;28;1523;-68
2023/01/01 00:06:45;;;;;;;;;;;;;;;;;;5095724;28;1894;-68
2023/01/01 00:11:54;;;;;;;;;;;;;;;;;;5099497;28;658;-69
2023/01/01 00:14:20;;;;;;;;;;;;;;;;;;5115134;28;864;-68
2023/01/01 00:16:45;;;;;;;;;;;;;;;;;;5079686;28;1202;-69
2023/01/01 00:19:11;;;;;;;;;;;;;;;;;;5096333;28;900;-68
2023/01/01 00:21:36;;;;;;;;;;;;;;;;;;5096487;28;1461;-69
2023/01/01 00:24:02;;;;;;;;;;;;;;;;;;5096756;28;1274;-74
2023/01/01 00:26:27;;;;;;;;;;;;;;;;;;5114705;28;1874;-73
2023/01/01 00:28:52;;;;;;;;;;;;;;;;;;5079689;28;1211;-69
2023/01/01 00:31:18;;;;;;;;;;;;;;;;;;5095522;28;1307;-68
2023/01/01 00:33:53;;;;;;;;;;;;;;;;;;5096121;28;1290;-69
2023/01/01 00:36:20;;;;;;;;;;;;;;;;;;5095405;28;1353;-69
2023/01/01 00:38:45;;;;;;;;;;;;;;;;;;5114439;28;864;-69
2023/01/01 00:41:11;;;;;;;;;;;;;;;;;;5096070;28;1072;-69
2023/01/01 00:43:37;;;;;;;;;;;;;;;;;;5096593;28;1250;-77
2023/01/01 00:46:03;;;;;;;;;;;;;;;;;;5096385;28;900;-71
2023/01/01 00:48:29;;;;;;;;;;;;;;;;;;5114564;28;1955;-71
2023/01/01 00:50:54;;;;;;;;;;;;;;;;;;5115019;28;947;-71
2023/01/01 00:53:19;;;;;;;;;;;;;;;;;;5096099;28;1183;-69
2023/01/01 00:55:46;;;;;;;;;;;;;;;;;;5114838;28;1045;-68
2023/01/01 00:58:11;;;;;;;;;;;;;;;;;;5096352;28;1298;-69
2023/01/01 01:00:37;;;;;;;;;;;;;;;;;;5096535;28;1298;-70
2023/01/01 01:03:02;;;;;;;;;;;;;;;;;;5096373;28;1007;-71
2023/01/01 01:05:28;;;;;;;;;;;;;;;;;;5095021;28;1255;-69
2023/01/01 01:07:53;;;;;;;;;;;;;;;;;;5078071;28;1906;-69
2023/01/01 01:10:20;;;;;;;;;;;;;;;;;;5094543;28;1365;-69
2023/01/01 01:12:46;;;;;;;;;;;;;;;;;;5095032;28;1291;-69
2023/01/01 01:15:11;;;;;;;;;;;;;;;;;;5095027;28;1190;-69
2023/01/01 01:17:37;;;;;;;;;;;;;;;;;;5095606;28;959;-69
2023/01/01 01:20:02;;;;;;;;;;;;;;;;;;5113210;28;904;-69
2023/01/01 01:22:27;;;;;;;;;;;;;;;;;;5113161;28;762;-69
2023/01/01 01:24:53;;;;;;;;;;;;;;;;;;5114580;28;1087;-69
2023/01/01 01:27:18;;;;;;;;;;;;;;;;;;5094631;28;1898;-69
2023/01/01 01:29:44;;;;;;;;;;;;;;;;;;5095406;28;817;-69
2023/01/01 01:32:10;;;;;;;;;;;;;;;;;;5095902;28;1242;-69
2023/01/01 01:34:35;;;;;;;;;;;;;;;;;;5114831;28;1080;-68
2023/01/01 01:37:01;;;;;;;;;;;;;;;;;;5095478;28;1089;-69
2023/01/01 01:39:26;;;;;;;;;;;;;;;;;;5095678;28;1178;-69
2023/01/01 01:41:52;;;;;;;;;;;;;;;;;;5095946;28;928;-69
2023/01/01 01:44:36;;;;;;;;;;;;;;;;;;5095451;28;904;-69
2023/01/01 01:47:02;;;;;;;;;;;;;;;;;;5114126;28;1901;-69
2023/01/01 01:49:29;;;;;;;;;;;;;;;;;;5094877;28;1274;-68
2023/01/01 01:51:55;;;;;;;;;;;;;;;;;;5095642;28;1417;-69
2023/01/01 01:54:22;;;;;;;;;;;;;;;;;;5113799;28;888;-69
2023/01/01 01:56:56;;;;;;;;;;;;;;;;;;5113674;28;1059;-68
2023/01/01 01:59:23;;;;;;;;;;;;;;;;;;5094482;28;1132;-68
2023/01/01 02:01:49;;;;;;;;;;;;;;;;;;5096084;28;1152;-68
2023/01/01 02:04:15;;;;;;;;;;;;;;;;;;5113712;28;994;-68
2023/01/01 02:06:41;;;;;;;;;;;;;;;;;;5116361;28;1874;-68
2023/01/01 02:09:07;;;;;;;;;;;;;;;;;;5081720;28;1174;-68
2023/01/01 02:11:33;;;;;;;;;;;;;;;;;;5100369;28;856;-68
2023/01/01 02:13:59;;;;;;;;;;;;;;;;;;5100056;28;1254;-68
2023/01/01 02:16:43;;;;;;;;;;;;;;;;;;5095444;28;1179;-68
2023/01/01 02:19:27;;;;;;;;;;;;;;;;;;5097624;28;1231;-68
2023/01/01 02:22:11;;;;;;;;;;;;;;;;;;5097556;28;1227;-68
2023/01/01 02:24:36;;;;;;;;;;;;;;;;;;5095408;28;1172;-68
2023/01/01 02:27:21;;;;;;;;;;;;;;;;;;5095697;28;1907;-68
2023/01/01 02:29:59;;;;;;;;;;;;;;;;;;5095883;28;1243;-68
2023/01/01 02:32:28;;;;;;;;;;;;;;;;;;5113606;28;912;-68
2023/01/01 02:35:33;;;;;;;;;;;;;;;;;;5113244;28;896;-69
2023/01/01 02:37:50;;;;;;;;;;;;;;;;;;5111775;28;935;-68
2023/01/01 02:40:15;;;;;;;;;;;;;;;;;;5111611;28;884;-68
2023/01/01 02:42:41;;;;;;;;;;;;;;;;;;5093972;28;893;-69
2023/01/01 02:45:07;;;;;;;;;;;;;;;;;;5093844;28;1251;-69
2023/01/01 02:47:32;;;;;;;;;;;;;;;;;;5111554;28;1910;-68
2023/01/01 02:50:12;;;;;;;;;;;;;;;;;;5093550;28;773;-69
2023/01/01 02:52:56;;;;;;;;;;;;;;;;;;5094026;28;1236;-69
2023/01/01 02:55:38;;;;;;;;;;;;;;;;;;5092985;28;1227;-69
2023/01/01 03:00:56;;;;;;;;;;;;;;;;;;5112049;28;717;-69
2023/01/01 03:03:27;;;;;;;;;;;;;;;;;;5092990;28;1385;-70
2023/01/01 03:08:36;;;;;;;;;;;;;;;;;;5111922;28;741;-69
2023/01/01 03:11:08;;;;;;;;;;;;;;;;;;5093188;28;1255;-69
2023/01/01 03:13:33;;;;;;;;;;;;;;;;;;5092907;28;1357;-69
2023/01/01 03:16:01;;;;;;;;;;;;;;;;;;5111868;28;638;-68
2023/01/01 03:18:27;;;;;;;;;;;;;;;;;;5093076;28;1404;-69
2023/01/01 03:20:54;;;;;;;;;;;;;;;;;;5111723;28;829;-68
2023/01/01 03:23:25;;;;;;;;;;;;;;;;;;5092704;28;1341;-69
2023/01/01 03:25:52;;;;;;;;;;;;;;;;;;5093291;28;1310;-68
2023/01/01 03:28:27;;;;;;;;;;;;;;;;;;5095899;28;1945;-68
2023/01/01 03:30:52;;;;;;;;;;;;;;;;;;5073297;28;1183;-68
2023/01/01 03:33:24;;;;;;;;;;;;;;;;;;5076814;28;1255;-68
2023/01/01 03:35:56;;;;;;;;;;;;;;;;;;5095926;28;805;-68
2023/01/01 03:38:25;;;;;;;;;;;;;;;;;;5077051;28;1285;-68
2023/01/01 03:40:53;;;;;;;;;;;;;;;;;;5077033;28;1299;-68
2023/01/01 03:43:22;;;;;;;;;;;;;;;;;;5077015;28;1369;-68
2023/01/01 03:45:49;;;;;;;;;;;;;;;;;;5076614;28;1195;-68
2023/01/01 03:48:15;;;;;;;;;;;;;;;;;;5075939;28;1969;-68
2023/01/01 03:50:43;;;;;;;;;;;;;;;;;;5094793;28;841;-68
2023/01/01 03:53:14;;;;;;;;;;;;;;;;;;5077018;28;1112;-68
2023/01/01 03:56:05;;;;;;;;;;;;;;;;;;5076529;28;1469;-68
2023/01/01 03:58:35;;;;;;;;;;;;;;;;;;5093941;28;963;-68
2023/01/01 04:01:09;;;;;;;;;;;;;;;;;;5075884;28;1421;-68
2023/01/01 04:03:36;;;;;;;;;;;;;;;;;;5094042;28;766;-68
2023/01/01 04:06:02;;;;;;;;;;;;;;;;;;5076139;28;1311;-68
2023/01/01 04:08:27;;;;;;;;;;;;;;;;;;5093968;28;1906;-68
2023/01/01 04:10:58;;;;;;;;;;;;;;;;;;5076041;28;861;-68
2023/01/01 04:13:24;;;;;;;;;;;;;;;;;;5094068;28;1104;-68
2023/01/01 04:15:50;;;;;;;;;;;;;;;;;;5059332;28;1340;-68
2023/01/01 04:18:15;;;;;;;;;;;;;;;;;;5093880;28;872;-68
2023/01/01 04:20:40;;;;;;;;;;;;;;;;;;5075676;28;1147;-68
2023/01/01 04:23:05;;;;;;;;;;;;;;;;;;5075811;28;1175;-68
2023/01/01 04:25:31;;;;;;;;;;;;;;;;;;5075551;28;1274;-68
2023/01/01 04:28:02;;;;;;;;;;;;;;;;;;5093786;28;1914;-68
2023/01/01 04:30:28;;;;;;;;;;;;;;;;;;5075732;28;1120;-68
2023/01/01 04:32:54;;;;;;;;;;;;;;;;;;5093942;28;919;-68
2023/01/01 04:35:19;;;;;;;;;;;;;;;;;;5075972;28;1382;-68
2023/01/01 04:37:45;;;;;;;;;;;;;;;;;;5093768;28;939;-68
2023/01/01 04:40:11;;;;;;;;;;;;;;;;;;5075891;28;877;-68
2023/01/01 04:42:36;;;;;;;;;;;;;;;;;;5074831;28;1234;-68
2023/01/01 04:45:02;;;;;;;;;;;;;;;;;;5075593;28;829;-68
2023/01/01 04:47:27;;;;;;;;;;;;;;;;;;5093502;28;1910;-68
2023/01/01 04:49:53;;;;;;;;;;;;;;;;;;5059059;28;1196;-68
2023/01/01 04:52:18;;;;;;;;;;;;;;;;;;5075327;28;1156;-69
2023/01/01 04:54:44;;;;;;;;;;;;;;;;;;5058595;28;1741;-68
2023/01/01 04:57:09;;;;;;;;;;;;;;;;;;5075702;28;911;-68
2023/01/01 04:59:34;;;;;;;;;;;;;;;;;;5075441;28;1278;-69
2023/01/01 05:01:59;;;;;;;;;;;;;;;;;;5093587;28;864;-68
2023/01/01 05:04:25;;;;;;;;;;;;;;;;;;5075300;28;901;-69
2023/01/01 05:06:50;;;;;;;;;;;;;;;;;;5075391;28;1967;-68
2023/01/01 05:09:15;;;;;;;;;;;;;;;;;;5074976;28;900;-69
2023/01/01 05:11:40;;;;;;;;;;;;;;;;;;5093429;28;821;-68
2023/01/01 05:14:06;;;;;;;;;;;;;;;;;;5075342;28;879;-69
2023/01/01 05:16:33;;;;;;;;;;;;;;;;;;5074725;28;1280;-67
2023/01/01 05:18:59;;;;;;;;;;;;;;;;;;5075094;28;1436;-67
2023/01/01 05:21:25;;;;;;;;;;;;;;;;;;5092931;28;808;-67
2023/01/01 05:23:54;;;;;;;;;;;;;;;;;;5093442;28;924;-68
2023/01/01 05:26:22;;;;;;;;;;;;;;;;;;5075087;28;1926;-68
2023/01/01 05:28:47;;;;;;;;;;;;;;;;;;5076674;28;1315;-68
2023/01/01 05:31:14;;;;;;;;;;;;;;;;;;5112981;28;832;-68
2023/01/01 05:33:39;;;;;;;;;;;;;;;;;;5113111;28;844;-68
2023/01/01 05:36:07;;;;;;;;;;;;;;;;;;5113050;28;987;-68
2023/01/01 05:38:34;;;;;;;;;;;;;;;;;;5094279;28;1385;-68
2023/01/01 05:41:03;;;;;;;;;;;;;;;;;;5094480;28;1332;-68
2023/01/01 05:43:29;;;;;;;;;;;;;;;;;;5108993;27;1289;-68
2023/01/01 05:46:04;;;;;;;;;;;;;;;;;;5113028;27;1178;-68
2023/01/01 05:48:30;;;;;;;;;;;;;;;;;;5131517;27;1978;-68
2023/01/01 05:51:05;;;;;;;;;;;;;;;;;;5113952;27;1373;-68
2023/01/01 05:53:31;;;;;;;;;;;;;;;;;;5131776;27;766;-67
2023/01/01 05:55:57;;;;;;;;;;;;;;;;;;5113313;27;921;-68
2023/01/01 05:58:22;;;;;;;;;;;;;;;;;;5113811;27;1193;-68
2023/01/01 06:00:47;;;;;;;;;;;;;;;;;;5132992;27;841;-68
2023/01/01 06:03:13;;;;;;;;;;;;;;;;;;5097612;27;1302;-68
2023/01/01 06:05:38;;;;;;;;;;;;;;;;;;5097322;27;1193;-68
2023/01/01 06:08:03;;;;;;;;;;;;;;;;;;5132749;27;1910;-68
2023/01/01 06:10:29;;;;;;;;;;;;;;;;;;5113812;27;1317;-68
2023/01/01 06:12:57;;;;;;;;;;;;;;;;;;5133183;27;907;-68
2023/01/01 06:15:22;;;;;;;;;;;;;;;;;;5114213;27;1425;-69
2023/01/01 06:17:48;;;;;;;;;;;;;;;;;;5097316;27;1235;-68
2023/01/01 06:20:13;;;;;;;;;;;;;;;;;;5097544;27;1183;-68
2023/01/01 06:22:38;;;;;;;;;;;;;;;;;;5132411;27;994;-68
2023/01/01 06:25:03;;;;;;;;;;;;;;;;;;5132607;27;884;-68
2023/01/01 06:27:29;;;;;;;;;;;;;;;;;;5132047;27;1894;-68
2023/01/01 06:29:54;;;;;;;;;;;;;;;;;;5132907;27;773;-69
2023/01/01 06:32:20;;;;;;;;;;;;;;;;;;5114006;27;1332;-68
2023/01/01 06:34:45;;;;;;;;;;;;;;;;;;5132305;27;835;-68
2023/01/01 06:37:10;;;;;;;;;;;;;;;;;;5114354;27;824;-68
2023/01/01 06:39:35;;;;;;;;;;;;;;;;;;5131978;27;875;-68
2023/01/01 06:42:01;;;;;;;;;;;;;;;;;;5132368;27;915;-68
2023/01/01 06:44:28;;;;;;;;;;;;;;;;;;5132729;27;986;-68
2023/01/01 06:46:53;;;;;;;;;;;;;;;;;;5132633;27;1982;-69
2023/01/01 06:49:18;;;;;;;;;;;;;;;;;;5114697;28;907;-69
2023/01/01 06:51:44;;;;;;;;;;;;;;;;;;5097301;27;1099;-68
2023/01/01 06:54:09;;;;;;;;;;;;;;;;;;5114561;27;876;-68
2023/01/01 06:56:35;;;;;;;;;;;;;;;;;;5097281;28;1171;-69
2023/01/01 06:59:00;;;;;;;;;;;;;;;;;;5114224;28;1190;-68
2023/01/01 07:01:27;;;;;;;;;;;;;;;;;;5097262;28;1441;-68
2023/01/01 07:03:54;;;;;;;;;;;;;;;;;;5113852;28;1171;-68
2023/01/01 07:06:19;;;;;;;;;;;;;;;;;;5113971;27;1242;-68
2023/01/01 07:08:44;;;;;;;;;;;;;;;;;;5100323;27;1959;-67
2023/01/01 07:11:09;;;;;;;;;;;;;;;;;;5118252;27;1297;-68
2023/01/01 07:13:35;;;;;;;;;;;;;;;;;;5117618;27;904;-68
2023/01/01 07:16:01;;;;;;;;;;;;;;;;;;5117621;27;1177;-68
2023/01/01 07:18:26;;;;;;;;;;;;;;;;;;5117493;27;1293;-68
2023/01/01 07:20:56;;;;;;;;;;;;;;;;;;5135939;27;794;-68
2023/01/01 07:23:22;;;;;;;;;;;;;;;;;;5117171;27;1218;-67
2023/01/01 07:25:47;;;;;;;;;;;;;;;;;;5136036;27;895;-68
2023/01/01 07:28:13;;;;;;;;;;;;;;;;;;5135905;27;1906;-68
2023/01/01 07:30:38;;;;;;;;;;;;;;;;;;5117538;27;825;-68
2023/01/01 07:33:03;;;;;;;;;;;;;;;;;;5117513;27;844;-68
2023/01/01 07:35:29;;;;;;;;;;;;;;;;;;5135589;27;884;-68
2023/01/01 07:37:54;;;;;;;;;;;;;;;;;;5135367;27;938;-68
2023/01/01 07:40:19;;;;;;;;;;;;;;;;;;5135554;27;954;-68
2023/01/01 07:42:45;;;;;;;;;;;;;;;;;;5117082;27;1463;-67
2023/01/01 07:45:11;;;;;;;;;;;;;;;;;;5117370;27;888;-68
2023/01/01 07:47:36;;;;;;;;;;;;;;;;;;5117082;27;1883;-69
2023/01/01 07:50:02;;;;;;;;;;;;;;;;;;5117444;27;895;-69
2023/01/01 07:52:27;;;;;;;;;;;;;;;;;;5100041;27;1246;-69
2023/01/01 07:54:52;;;;;;;;;;;;;;;;;;5117051;27;907;-69
2023/01/01 07:57:17;;;;;;;;;;;;;;;;;;5117113;27;1143;-69
2023/01/01 07:59:43;;;;;;;;;;;;;;;;;;5116479;27;896;-67
2023/01/01 08:02:10;;;;;;;;;;;;;;;;;;5117089;27;943;-69
2023/01/01 08:04:35;;;;;;;;;;;;;;;;;;5133687;27;892;-69
2023/01/01 08:07:04;;;;;;;;;;;;;;;;;;5115707;27;1975;-67
2023/01/01 08:09:29;;;;;;;;;;;;;;;;;;5115650;27;1264;-70
2023/01/01 08:11:57;;;;;;;;;;;;;;;;;;5099167;27;1176;-67
2023/01/01 08:14:22;;;;;;;;;;;;;;;;;;5116447;27;1381;-67
2023/01/01 08:16:48;;;;;;;;;;;;;;;;;;5135249;27;836;-67
2023/01/01 08:19:13;;;;;;;;;;;;;;;;;;5116876;27;904;-67
2023/01/01 08:21:38;;;;;;;;;;;;;;;;;;5116859;27;1231;-67
2023/01/01 08:24:03;;;;;;;;;;;;;;;;;;5116885;27;1337;-68
2023/01/01 08:26:33;;;;;;;;;;;;;;;;;;5116465;27;1914;-68
2023/01/01 08:29:00;;;;;;;;;;;;;;;;;;5094698;28;896;-67
2023/01/01 08:31:25;;;;;;;;;;;;;;;;;;5094377;28;971;-68
2023/01/01 08:33:50;;;;;;;;;;;;;;;;;;5094209;28;852;-68
2023/01/01 08:36:16;;;;;;;;;;;;;;;;;;5076285;28;1398;-68
2023/01/01 08:38:42;;;;;;;;;;;;;;;;;;5092479;28;913;-68
2023/01/01 08:41:07;;;;;;;;;;;;;;;;;;5094614;28;970;-69
2023/01/01 08:43:32;;;;;;;;;;;;;;;;;;5075864;28;1104;-69
2023/01/01 08:45:58;;;;;;;;;;;;;;;;;;5092585;28;884;-69
2023/01/01 08:48:23;;;;;;;;;;;;;;;;;;5093652;28;1929;-68
2023/01/01 08:50:52;;;;;;;;;;;;;;;;;;5091825;28;860;-69
2023/01/01 08:53:17;;;;;;;;;;;;;;;;;;5093518;28;907;-69
2023/01/01 08:55:43;;;;;;;;;;;;;;;;;;5093214;28;940;-68
2023/01/01 08:58:08;;;;;;;;;;;;;;;;;;5075192;28;1425;-68
2023/01/01 09:00:33;;;;;;;;;;;;;;;;;;5075184;28;1468;-68
2023/01/01 09:02:58;;;;;;;;;;;;;;;;;;5091650;28;887;-70
2023/01/01 09:05:24;;;;;;;;;;;;;;;;;;5091727;28;971;-69
2023/01/01 09:07:49;;;;;;;;;;;;;;;;;;5074819;28;1969;-69
2023/01/01 09:10:14;;;;;;;;;;;;;;;;;;5091859;28;895;-69
2023/01/01 09:12:40;;;;;;;;;;;;;;;;;;5093278;28;935;-69
2023/01/01 09:15:05;;;;;;;;;;;;;;;;;;5074769;28;1370;-70
2023/01/01 09:17:31;;;;;;;;;;;;;;;;;;5091831;28;833;-69
2023/01/01 09:19:56;;;;;;;;;;;;;;;;;;5091410;28;1103;-69
2023/01/01 09:22:21;;;;;;;;;;;;;;;;;;5093740;28;792;-69
2023/01/01 09:24:47;;;;;;;;;;;;;;;;;;5091062;28;1151;-69
2023/01/01 09:27:12;;;;;;;;;;;;;;;;;;5080350;28;1888;-69
2023/01/01 09:29:37;;;;;;;;;;;;;;;;;;5113104;28;853;-70
2023/01/01 09:32:03;;;;;;;;;;;;;;;;;;5113138;28;809;-69
2023/01/01 09:34:28;;;;;;;;;;;;;;;;;;5111419;28;1253;-69
2023/01/01 09:36:53;;;;;;;;;;;;;;;;;;5111436;28;1614;-70
2023/01/01 09:39:19;;;;;;;;;;;;;;;;;;5111995;28;907;-70
2023/01/01 09:42:13;;;;;;;;;;;;;;;;;;5113315;28;880;-69
2023/01/01 09:44:47;;;;;;;;;;;;;;;;;;5095453;28;1429;-70
2023/01/01 09:47:24;;;;;;;;;;;;;;;;;;5113437;28;1905;-69
2023/01/01 09:49:51;;;;;;;;;;;;;;;;;;5111637;28;1195;-69
2023/01/01 09:52:18;;;;;;;;;;;;;;;;;;5111800;28;1206;-69
2023/01/01 09:54:46;;;;;;;;;;;;;;;;;;5111521;28;1260;-69
2023/01/01 09:57:12;;;;;;;;;;;;;;;;;;5111459;28;1303;-69
2023/01/01 09:59:39;;;;;;;;;;;;;;;;;;5111450;28;1174;-70
2023/01/01 10:02:13;;;;;;;;;;;;;;;;;;5111346;28;1341;-69
2023/01/01 10:04:47;;;;;;;;;;;;;;;;;;5111641;28;1265;-69
2023/01/01 10:07:13;;;;;;;;;;;;;;;;;;5110103;28;1901;-69
2023/01/01 10:09:57;;;;;;;;;;;;;;;;;;5110205;28;1128;-69
2023/01/01 10:12:35;;;;;;;;;;;;;;;;;;5109400;28;1463;-69
2023/01/01 10:15:12;;;;;;;;;;;;;;;;;;5110724;28;1186;-69
2023/01/01 10:17:41;;;;;;;;;;;;;;;;;;5111136;28;1226;-69
2023/01/01 10:20:14;;;;;;;;;;;;;;;;;;5110789;28;1296;-70
2023/01/01 10:22:43;;;;;;;;;;;;;;;;;;5111016;28;1269;-70
2023/01/01 10:25:22;;;;;;;;;;;;;;;;;;5112493;28;1072;-70
2023/01/01 10:27:57;;;;;;;;;;;;;;;;;;5110268;28;1898;-70
2023/01/01 10:30:24;;;;;;;;;;;;;;;;;;5108949;28;1357;-70
2023/01/01 10:32:50;;;;;;;;;;;;;;;;;;5092220;28;1325;-70
2023/01/01 10:35:17;;;;;;;;;;;;;;;;;;5110512;28;1182;-70
2023/01/01 10:37:43;;;;;;;;;;;;;;;;;;5110522;28;1376;-70
2023/01/01 10:40:16;;;;;;;;;;;;;;;;;;5111026;28;1300;-70
2023/01/01 10:42:44;;;;;;;;;;;;;;;;;;5109570;28;1190;-70
2023/01/01 10:45:16;;;;;;;;;;;;;;;;;;5110209;28;1346;-70
2023/01/01 10:48:00;;;;;;;;;;;;;;;;;;5109830;28;1913;-70
2023/01/01 10:50:39;;;;;;;;;;;;;;;;;;5111195;28;927;-70
2023/01/01 10:53:05;;;;;;;;;;;;;;;;;;5111500;28;907;-70
2023/01/01 10:55:30;;;;;;;;;;;;;;;;;;5111647;28;765;-70
2023/01/01 10:57:55;;;;;;;;;;;;;;;;;;5111313;28;927;-70
2023/01/01 11:00:26;;;;;;;;;;;;;;;;;;5092784;28;1191;-70
2023/01/01 11:03:24;;;;;;;;;;;;;;;;;;5111812;28;948;-69
2023/01/01 11:05:58;;;;;;;;;;;;;;;;;;5066577;28;1218;-70
2023/01/01 11:08:23;;;;;;;;;;;;;;;;;;5110302;28;1948;-70
2023/01/01 11:10:50;;;;;;;;;;;;;;;;;;5110419;28;821;-70
2023/01/01 11:13:20;;;;;;;;;;;;;;;;;;5110677;28;1253;-70
2023/01/01 11:15:46;;;;;;;;;;;;;;;;;;5110584;28;1501;-70
2023/01/01 11:18:19;;;;;;;;;;;;;;;;;;5110547;28;1092;-69
2023/01/01 11:20:49;;;;;;;;;;;;;;;;;;5111750;28;933;-70
2023/01/01 11:23:25;;;;;;;;;;;;;;;;;;5111494;28;962;-70
2023/01/01 11:26:05;;;;;;;;;;;;;;;;;;5110615;28;1344;-70
2023/01/01 11:28:33;;;;;;;;;;;;;;;;;;5128054;28;1955;-68
2023/01/01 11:31:04;;;;;;;;;;;;;;;;;;5113817;28;1575;-68
2023/01/01 11:33:31;;;;;;;;;;;;;;;;;;5131423;28;832;-68
2023/01/01 11:35:57;;;;;;;;;;;;;;;;;;5113902;28;1333;-78
2023/01/01 11:38:23;;;;;;;;;;;;;;;;;;5114036;28;1484;-80
2023/01/01 11:40:51;;;;;;;;;;;;;;;;;;5132362;28;863;-79
2023/01/01 11:43:24;;;;;;;;;;;;;;;;;;5113101;28;1306;-79
2023/01/01 11:45:51;;;;;;;;;;;;;;;;;;5113784;28;1322;-77
2023/01/01 11:48:17;;;;;;;;;;;;;;;;;;5112967;28;1898;-67
2023/01/01 11:50:53;;;;;;;;;;;;;;;;;;5112956;28;1166;-69
2023/01/01 11:53:19;;;;;;;;;;;;;;;;;;5133053;27;895;-69
2023/01/01 11:55:48;;;;;;;;;;;;;;;;;;5135317;27;872;-69
2023/01/01 11:58:20;;;;;;;;;;;;;;;;;;5134922;27;908;-69
2023/01/01 12:00:48;;;;;;;;;;;;;;;;;;5135259;27;955;-69
2023/01/01 12:03:39;;;;;;;;;;;;;;;;;;5134991;27;959;-70
2023/01/01 12:06:24;;;;;;;;;;;;;;;;;;5130865;27;1388;-69
2023/01/01 12:09:09;;;;;;;;;;;;;;;;;;5133863;27;1980;-69
2023/01/01 12:11:42;;;;;;;;;;;;;;;;;;5134810;27;978;-69
2023/01/01 12:14:22;;;;;;;;;;;;;;;;;;5116575;27;1208;-69
2023/01/01 12:16:57;;;;;;;;;;;;;;;;;;5134933;27;816;-69
2023/01/01 12:19:29;;;;;;;;;;;;;;;;;;5134666;27;1020;-69
2023/01/01 12:21:57;;;;;;;;;;;;;;;;;;5116329;27;1052;-69
2023/01/01 12:24:24;;;;;;;;;;;;;;;;;;5116183;27;1406;-68
2023/01/01 12:26:55;;;;;;;;;;;;;;;;;;5115893;27;2003;-69
2023/01/01 12:29:39;;;;;;;;;;;;;;;;;;5116567;27;1376;-69
2023/01/01 12:32:17;;;;;;;;;;;;;;;;;;5116766;27;1187;-69
2023/01/01 12:34:51;;;;;;;;;;;;;;;;;;5116574;27;1103;-69
2023/01/01 12:37:46;;;;;;;;;;;;;;;;;;5135238;27;843;-69
2023/01/01 12:40:32;;;;;;;;;;;;;;;;;;5099202;27;1361;-69
2023/01/01 12:43:20;;;;;;;;;;;;;;;;;;5135417;27;840;-69
2023/01/01 12:45:45;;;;;;;;;;;;;;;;;;5116241;27;1120;-69
2023/01/01 12:48:36;;;;;;;;;;;;;;;;;;5117011;27;1926;-69
2023/01/01 12:51:19;;;;;;;;;;;;;;;;;;5116637;27;1222;-69
2023/01/01 12:53:55;;;;;;;;;;;;;;;;;;5134307;27;809;-69
2023/01/01 12:56:33;;;;;;;;;;;;;;;;;;5115896;27;1350;-69
2023/01/01 12:59:02;;;;;;;;;;;;;;;;;;5116165;27;1345;-69
2023/01/01 13:01:29;;;;;;;;;;;;;;;;;;5115903;27;1319;-69
2023/01/01 13:04:02;;;;;;;;;;;;;;;;;;5133690;27;875;-69
2023/01/01 13:06:32;;;;;;;;;;;;;;;;;;5115889;27;1041;-69
2023/01/01 13:09:21;;;;;;;;;;;;;;;;;;5134000;27;1941;-69
2023/01/01 13:11:52;;;;;;;;;;;;;;;;;;5104155;27;1259;-69
2023/01/01 13:14:17;;;;;;;;;;;;;;;;;;5116004;27;1265;-69
2023/01/01 13:16:53;;;;;;;;;;;;;;;;;;5133873;27;916;-69
2023/01/01 13:19:37;;;;;;;;;;;;;;;;;;5133897;27;963;-69
2023/01/01 13:22:21;;;;;;;;;;;;;;;;;;5115331;27;1250;-69
2023/01/01 13:25:05;;;;;;;;;;;;;;;;;;5115317;27;1250;-69
2023/01/01 13:27:49;;;;;;;;;;;;;;;;;;5114627;27;1898;-67
2023/01/01 13:30:33;;;;;;;;;;;;;;;;;;5133399;27;947;-69
2023/01/01 13:33:17;;;;;;;;;;;;;;;;;;5115417;27;1142;-69
2023/01/01 13:35:42;;;;;;;;;;;;;;;;;;5133752;27;848;-69
2023/01/01 13:38:27;;;;;;;;;;;;;;;;;;5114875;27;1213;-69
2023/01/01 13:40:53;;;;;;;;;;;;;;;;;;5114733;27;1206;-69
2023/01/01 13:43:19;;;;;;;;;;;;;;;;;;5114856;27;836;-69
2023/01/01 13:45:51;;;;;;;;;;;;;;;;;;5133687;27;1066;-69
2023/01/01 13:48:23;;;;;;;;;;;;;;;;;;5115179;27;1906;-69
2023/01/01 13:51:07;;;;;;;;;;;;;;;;;;5115451;27;1418;-69
2023/01/01 13:53:51;;;;;;;;;;;;;;;;;;5133635;27;999;-69
2023/01/01 13:56:16;;;;;;;;;;;;;;;;;;5132929;27;1293;-69
2023/01/01 13:58:47;;;;;;;;;;;;;;;;;;5113953;27;1305;-69
2023/01/01 14:01:39;;;;;;;;;;;;;;;;;;5114221;27;1349;-69
2023/01/01 14:04:07;;;;;;;;;;;;;;;;;;5114320;27;1301;-68
2023/01/01 14:06:33;;;;;;;;;;;;;;;;;;5132684;27;904;-69
2023/01/01 14:09:12;;;;;;;;;;;;;;;;;;5114385;27;1905;-69
2023/01/01 14:11:37;;;;;;;;;;;;;;;;;;5133106;27;804;-69
2023/01/01 14:14:16;;;;;;;;;;;;;;;;;;5115912;27;963;-69
2023/01/01 14:16:41;;;;;;;;;;;;;;;;;;5115835;27;1305;-69
2023/01/01 14:19:09;;;;;;;;;;;;;;;;;;5099661;27;1293;-69
2023/01/01 14:21:37;;;;;;;;;;;;;;;;;;5114969;27;1154;-68
2023/01/01 14:24:05;;;;;;;;;;;;;;;;;;5133788;27;1001;-69
2023/01/01 14:26:31;;;;;;;;;;;;;;;;;;5133751;27;848;-68
2023/01/01 14:29:02;;;;;;;;;;;;;;;;;;5133937;27;1970;-68
2023/01/01 14:31:33;;;;;;;;;;;;;;;;;;5132991;27;919;-68
2023/01/01 14:33:58;;;;;;;;;;;;;;;;;;5133824;27;1064;-69
2023/01/01 14:36:25;;;;;;;;;;;;;;;;;;5133506;27;935;-69
2023/01/01 14:38:52;;;;;;;;;;;;;;;;;;5133481;27;793;-68
2023/01/01 14:41:27;;;;;;;;;;;;;;;;;;5133295;27;895;-69
2023/01/01 14:43:55;;;;;;;;;;;;;;;;;;5115103;27;1241;-68
2023/01/01 14:46:22;;;;;;;;;;;;;;;;;;5114660;27;1279;-68
2023/01/01 14:48:50;;;;;;;;;;;;;;;;;;5115295;27;1976;-68
2023/01/01 14:51:19;;;;;;;;;;;;;;;;;;5115164;27;1100;-69
2023/01/01 14:53:45;;;;;;;;;;;;;;;;;;5116565;27;1170;-69
2023/01/01 14:56:20;;;;;;;;;;;;;;;;;;5118185;27;1376;-69
2023/01/01 14:58:45;;;;;;;;;;;;;;;;;;5135699;27;884;-68
2023/01/01 15:01:15;;;;;;;;;;;;;;;;;;5134663;27;1050;-68
2023/01/01 15:03:53;;;;;;;;;;;;;;;;;;5133036;27;824;-68
2023/01/01 15:06:18;;;;;;;;;;;;;;;;;;5132806;28;911;-69
2023/01/01 15:08:47;;;;;;;;;;;;;;;;;;5132520;28;1905;-68
2023/01/01 15:11:13;;;;;;;;;;;;;;;;;;5132492;28;857;-69
2023/01/01 15:13:38;;;;;;;;;;;;;;;;;;5097335;28;1216;-69
2023/01/01 15:16:17;;;;;;;;;;;;;;;;;;5097469;28;1325;-69
2023/01/01 15:18:44;;;;;;;;;;;;;;;;;;5113745;28;1127;-68
2023/01/01 15:21:15;;;;;;;;;;;;;;;;;;5132902;28;860;-68
2023/01/01 15:23:48;;;;;;;;;;;;;;;;;;5113955;28;1250;-69
2023/01/01 15:26:19;;;;;;;;;;;;;;;;;;5132972;28;907;-69
2023/01/01 15:28:44;;;;;;;;;;;;;;;;;;5134950;27;1972;-70
2023/01/01 15:31:10;;;;;;;;;;;;;;;;;;5118520;27;1198;-69
2023/01/01 15:33:36;;;;;;;;;;;;;;;;;;5117040;27;1274;-69
2023/01/01 15:36:03;;;;;;;;;;;;;;;;;;5135933;27;1005;-69
2023/01/01 15:38:35;;;;;;;;;;;;;;;;;;5116929;27;1480;-69
2023/01/01 15:41:20;;;;;;;;;;;;;;;;;;5117310;27;1190;-69
2023/01/01 15:43:46;;;;;;;;;;;;;;;;;;5116835;27;1236;-69
2023/01/01 15:46:19;;;;;;;;;;;;;;;;;;5136056;27;845;-69
2023/01/01 15:48:49;;;;;;;;;;;;;;;;;;5135197;27;1917;-70
2023/01/01 15:51:16;;;;;;;;;;;;;;;;;;5117569;27;1183;-69
2023/01/01 15:53:48;;;;;;;;;;;;;;;;;;5134956;27;864;-70
2023/01/01 15:56:14;;;;;;;;;;;;;;;;;;5135908;27;777;-68
2023/01/01 15:58:47;;;;;;;;;;;;;;;;;;5135389;27;868;-70
2023/01/01 16:01:13;;;;;;;;;;;;;;;;;;5135530;27;828;-70
2023/01/01 16:03:39;;;;;;;;;;;;;;;;;;5116857;27;1261;-70
2023/01/01 16:06:05;;;;;;;;;;;;;;;;;;5135669;27;879;-70
2023/01/01 16:08:30;;;;;;;;;;;;;;;;;;5116488;27;1976;-69
2023/01/01 16:10:55;;;;;;;;;;;;;;;;;;5117009;27;899;-69
2023/01/01 16:13:21;;;;;;;;;;;;;;;;;;5116477;27;1219;-69
2023/01/01 16:15:50;;;;;;;;;;;;;;;;;;5099737;27;1203;-70
2023/01/01 16:18:16;;;;;;;;;;;;;;;;;;5135434;27;927;-69
2023/01/01 16:20:42;;;;;;;;;;;;;;;;;;5116041;27;1102;-69
2023/01/01 16:23:11;;;;;;;;;;;;;;;;;;5099422;27;1262;-69
2023/01/01 16:25:36;;;;;;;;;;;;;;;;;;5134970;27;824;-69
2023/01/01 16:28:03;;;;;;;;;;;;;;;;;;5116776;27;1913;-69
2023/01/01 16:30:28;;;;;;;;;;;;;;;;;;5116142;27;1313;-69
2023/01/01 16:32:53;;;;;;;;;;;;;;;;;;5117350;27;900;-69
2023/01/01 16:35:19;;;;;;;;;;;;;;;;;;5116886;27;883;-69
2023/01/01 16:37:45;;;;;;;;;;;;;;;;;;5099717;27;1520;-69
2023/01/01 16:40:10;;;;;;;;;;;;;;;;;;5115680;27;1472;-70
2023/01/01 16:42:35;;;;;;;;;;;;;;;;;;5116467;27;887;-69
2023/01/01 16:45:01;;;;;;;;;;;;;;;;;;5135431;27;864;-69
2023/01/01 16:47:26;;;;;;;;;;;;;;;;;;5099290;27;1897;-69
2023/01/01 16:49:51;;;;;;;;;;;;;;;;;;5134785;27;1194;-69
2023/01/01 16:52:17;;;;;;;;;;;;;;;;;;5125142;27;1210;-69
2023/01/01 16:54:42;;;;;;;;;;;;;;;;;;5109067;27;1136;-69
2023/01/01 16:57:07;;;;;;;;;;;;;;;;;;5116792;27;832;-69
2023/01/01 16:59:33;;;;;;;;;;;;;;;;;;5132641;27;1183;-69
2023/01/01 17:01:58;;;;;;;;;;;;;;;;;;5093988;28;1215;-69
2023/01/01 17:04:23;;;;;;;;;;;;;;;;;;5098624;28;1184;-69
2023/01/01 17:06:49;;;;;;;;;;;;;;;;;;5079186;28;1956;-69
2023/01/01 17:09:14;;;;;;;;;;;;;;;;;;5095754;28;976;-69
2023/01/01 17:11:39;;;;;;;;;;;;;;;;;;5095356;28;1086;-69
2023/01/01 17:14:05;;;;;;;;;;;;;;;;;;5078592;28;1204;-69
2023/01/01 17:16:30;;;;;;;;;;;;;;;;;;5095452;28;830;-69
2023/01/01 17:18:55;;;;;;;;;;;;;;;;;;5113710;28;836;-78
2023/01/01 17:21:21;;;;;;;;;;;;;;;;;;5113673;28;821;-78
2023/01/01 17:23:47;;;;;;;;;;;;;;;;;;5113115;28;1040;-78
2023/01/01 17:26:17;;;;;;;;;;;;;;;;;;5095415;28;1352;-78
2023/01/01 17:28:43;;;;;;;;;;;;;;;;;;5094207;28;1897;-78
2023/01/01 17:31:10;;;;;;;;;;;;;;;;;;5094950;28;1229;-78